Time;durP1;ratioP1;P1;durP2;ratioP2;P2;SDS_P1;SDS_P2;PMS_P1;PMS_P2;Temp;Humidity;BMP_temperature;BMP_pressure;BME280_temperature;BME280_humidity;BME280_pressure;Samples;Min_cycle;Max_cycle;Signal;HPM_P1;HPM_P2
2021/06/12 00:00:21;;;;;;;5.33;2.50;;;18.60;99.90;;;;;;4997044;28;20204;-75
2021/06/12 00:02:48;;;;;;;2.43;2.10;;;18.80;99.90;;;;;;5019786;28;20282;-75
2021/06/12 00:05:16;;;;;;;6.63;2.33;;;18.80;99.90;;;;;;5008343;28;20253;-76
2021/06/12 00:07:43;;;;;;;6.17;2.60;;;18.50;99.90;;;;;;5013422;28;20221;-75
2021/06/12 00:10:19;;;;;;;4.53;2.63;;;18.50;99.90;;;;;;5029421;28;20229;-75
2021/06/12 00:12:48;;;;;;;4.37;2.57;;;18.60;99.90;;;;;;5018731;28;20249;-76
2021/06/12 00:15:17;;;;;;;4.90;2.50;;;18.50;99.90;;;;;;4998373;28;20625;-75
2021/06/12 00:17:45;;;;;;;3.47;2.80;;;18.50;99.90;;;;;;5001784;28;20201;-76
2021/06/12 00:20:19;;;;;;;4.13;2.60;;;18.50;99.90;;;;;;5016900;28;20252;-76
2021/06/12 00:22:46;;;;;;;4.57;2.33;;;18.40;99.90;;;;;;5028029;28;20274;-76
2021/06/12 00:25:16;;;;;;;4.10;2.63;;;18.10;99.90;;;;;;4999679;28;20270;-76
2021/06/12 00:27:43;;;;;;;5.00;2.50;;;18.10;99.90;;;;;;5013426;28;20297;-76
2021/06/12 00:30:12;;;;;;;5.83;2.57;;;18.20;99.90;;;;;;4998137;28;20318;-76
2021/06/12 00:32:39;;;;;;;3.10;2.43;;;18.20;99.90;;;;;;5016268;28;20258;-77
2021/06/12 00:35:08;;;;;;;5.70;2.10;;;18.30;99.90;;;;;;5018121;28;20203;-76
2021/06/12 00:37:36;;;;;;;5.37;2.50;;;18.30;99.90;;;;;;5017588;28;20705;-76
2021/06/12 00:40:05;;;;;;;5.27;2.77;;;18.00;99.90;;;;;;5031388;28;20601;-78
2021/06/12 00:42:32;;;;;;;4.87;2.50;;;18.00;99.90;;;;;;5011932;28;20607;-76
2021/06/12 00:44:59;;;;;;;3.43;2.60;;;17.80;99.90;;;;;;5013063;28;20610;-75
2021/06/12 00:47:26;;;;;;;5.23;2.57;;;17.90;99.90;;;;;;4997123;28;20681;-75
2021/06/12 00:49:53;;;;;;;2.63;2.40;;;18.00;99.90;;;;;;5014483;28;20606;-76
2021/06/12 00:52:20;;;;;;;5.37;2.47;;;18.10;99.90;;;;;;4992342;28;20267;-75
2021/06/12 00:54:47;;;;;;;4.73;2.50;;;18.20;99.90;;;;;;4994946;28;21051;-76
2021/06/12 00:57:14;;;;;;;2.80;2.17;;;18.20;99.90;;;;;;5012854;28;20241;-76
2021/06/12 00:59:41;;;;;;;4.97;2.53;;;18.10;99.90;;;;;;5012860;28;20682;-76
2021/06/12 01:02:08;;;;;;;5.40;2.97;;;17.90;99.90;;;;;;4984499;28;20206;-77
2021/06/12 01:04:35;;;;;;;4.63;2.40;;;17.90;99.90;;;;;;4997286;28;21957;-75
2021/06/12 01:07:02;;;;;;;7.17;2.87;;;17.70;99.90;;;;;;5018408;28;20211;-76
2021/06/12 01:09:29;;;;;;;3.77;2.57;;;17.80;99.90;;;;;;4998779;28;20290;-76
2021/06/12 01:12:05;;;;;;;4.00;2.30;;;17.90;99.90;;;;;;5004447;28;20289;-76
2021/06/12 01:14:36;;;;;;;5.63;2.57;;;17.90;99.90;;;;;;5020896;28;20749;-77
2021/06/12 01:17:12;;;;;;;3.87;2.70;;;18.00;99.90;;;;;;5035599;28;20269;-76
2021/06/12 01:20:00;;;;;;;5.20;2.10;;;17.90;99.90;;;;;;4992627;28;20220;-76
2021/06/12 01:23:09;;;;;;;3.77;2.13;;;17.90;99.90;;;;;;5035634;28;20278;-76
2021/06/12 01:25:54;;;;;;;3.63;2.50;;;17.80;99.90;;;;;;4996774;28;20224;-76
2021/06/12 01:28:34;;;;;;;2.70;2.27;;;17.90;99.90;;;;;;5013917;28;20234;-75
2021/06/12 01:31:03;;;;;;;5.73;2.47;;;18.10;99.90;;;;;;5008828;28;20334;-75
2021/06/12 01:33:31;;;;;;;4.00;2.57;;;18.20;99.90;;;;;;5012310;28;20277;-75
2021/06/12 01:36:04;;;;;;;4.27;2.30;;;18.10;99.90;;;;;;5013489;28;20350;-75
2021/06/12 01:38:33;;;;;;;4.17;2.33;;;18.20;99.90;;;;;;5030237;28;20228;-75
2021/06/12 01:41:03;;;;;;;7.27;2.60;;;18.10;99.90;;;;;;5028103;28;20292;-76
2021/06/12 01:43:31;;;;;;;4.27;2.30;;;17.90;99.90;;;;;;5028128;28;20277;-76
2021/06/12 01:45:59;;;;;;;4.73;2.27;;;17.90;99.90;;;;;;5008349;28;20270;-76
2021/06/12 01:48:27;;;;;;;5.67;2.47;;;17.90;99.90;;;;;;5025851;28;20547;-76
2021/06/12 01:50:58;;;;;;;5.10;2.27;;;17.80;99.90;;;;;;4996333;28;20228;-75
2021/06/12 01:53:31;;;;;;;7.40;2.60;;;17.90;99.90;;;;;;5012512;28;20223;-75
2021/06/12 01:56:07;;;;;;;4.43;3.10;;;17.80;99.90;;;;;;5002080;28;20268;-77
2021/06/12 01:58:37;;;;;;;4.47;2.37;;;17.80;99.90;;;;;;4997612;28;20257;-75
2021/06/12 02:01:07;;;;;;;2.63;2.30;;;17.90;99.90;;;;;;5012242;28;20284;-75
2021/06/12 02:03:34;;;;;;;4.80;2.90;;;17.70;99.90;;;;;;5036386;28;20236;-75
2021/06/12 02:06:01;;;;;;;8.50;2.77;;;17.60;99.90;;;;;;5013529;28;20346;-75
2021/06/12 02:08:31;;;;;;;4.23;2.60;;;17.80;99.90;;;;;;5032928;28;20245;-75
2021/06/12 02:10:58;;;;;;;4.20;2.53;;;17.80;99.90;;;;;;5027589;28;20280;-76
2021/06/12 02:13:25;;;;;;;4.67;2.50;;;17.70;99.90;;;;;;4988459;28;20344;-76
2021/06/12 02:15:56;;;;;;;5.50;2.80;;;17.60;99.90;;;;;;4998373;28;20357;-76
2021/06/12 02:18:26;;;;;;;3.97;2.90;;;17.60;99.90;;;;;;5013343;28;20607;-76
2021/06/12 02:20:54;;;;;;;5.27;2.70;;;17.60;99.90;;;;;;5010154;28;20218;-77
2021/06/12 02:23:24;;;;;;;3.57;2.40;;;17.50;99.90;;;;;;5017550;28;20267;-76
2021/06/12 02:25:51;;;;;;;7.67;2.43;;;17.60;99.90;;;;;;5009326;28;20267;-76
2021/06/12 02:28:20;;;;;;;4.10;2.50;;;17.90;99.90;;;;;;5012825;28;20200;-75
2021/06/12 02:30:53;;;;;;;3.47;2.80;;;17.80;99.90;;;;;;5010026;28;20225;-75
2021/06/12 02:33:22;;;;;;;5.87;2.57;;;17.60;99.90;;;;;;5008347;28;20324;-77
2021/06/12 02:35:49;;;;;;;6.67;2.57;;;17.70;99.90;;;;;;4991652;28;20236;-76
2021/06/12 02:38:16;;;;;;;4.23;2.87;;;17.70;99.90;;;;;;5023647;28;20225;-75
2021/06/12 02:40:43;;;;;;;6.40;2.77;;;17.60;99.90;;;;;;4997400;28;20207;-75
2021/06/12 02:43:11;;;;;;;5.13;2.80;;;17.80;99.90;;;;;;4998356;28;20423;-76
2021/06/12 02:45:40;;;;;;;6.00;2.87;;;17.70;99.90;;;;;;4987632;28;20247;-75
2021/06/12 02:48:13;;;;;;;3.67;3.23;;;17.60;99.90;;;;;;5006359;28;20317;-75
2021/06/12 02:50:42;;;;;;;5.10;3.07;;;17.70;99.90;;;;;;5009250;28;20927;-75
2021/06/12 02:53:10;;;;;;;5.93;2.83;;;17.60;99.90;;;;;;5009952;28;20213;-75
2021/06/12 02:55:40;;;;;;;6.53;3.10;;;17.70;99.90;;;;;;5027760;28;20266;-76
2021/06/12 02:58:09;;;;;;;6.77;2.90;;;17.60;99.90;;;;;;5007051;28;20293;-76
2021/06/12 03:00:37;;;;;;;3.60;2.80;;;17.60;99.90;;;;;;4993940;28;20227;-75
2021/06/12 03:03:05;;;;;;;5.03;2.77;;;17.70;99.90;;;;;;5013238;28;20585;-75
2021/06/12 03:05:36;;;;;;;5.93;3.57;;;17.90;99.90;;;;;;5018603;28;20196;-75
2021/06/12 03:08:04;;;;;;;8.07;3.57;;;17.80;99.90;;;;;;5037407;28;20234;-76
2021/06/12 03:10:35;;;;;;;6.20;3.20;;;17.80;99.90;;;;;;5013178;28;20217;-76
2021/06/12 03:13:06;;;;;;;5.33;3.57;;;17.60;99.90;;;;;;5012493;28;20226;-75
2021/06/12 03:15:34;;;;;;;6.87;3.90;;;17.60;99.90;;;;;;5029874;28;20242;-76
2021/06/12 03:18:03;;;;;;;6.50;4.03;;;17.50;99.90;;;;;;5011860;28;20211;-76
2021/06/12 03:20:31;;;;;;;6.20;3.43;;;17.50;99.90;;;;;;5010135;28;20559;-75
2021/06/12 03:23:02;;;;;;;5.43;3.67;;;17.70;99.90;;;;;;5025373;28;20678;-75
2021/06/12 03:25:29;;;;;;;6.67;3.50;;;17.60;99.90;;;;;;5027245;28;21450;-74
2021/06/12 03:27:58;;;;;;;4.87;3.67;;;17.70;99.90;;;;;;4995674;28;20200;-74
2021/06/12 03:30:30;;;;;;;7.13;4.07;;;17.60;99.90;;;;;;4998484;28;20515;-75
2021/06/12 03:32:58;;;;;;;6.90;3.70;;;17.60;99.90;;;;;;5013599;28;20263;-76
2021/06/12 03:35:25;;;;;;;6.90;4.23;;;17.60;99.90;;;;;;5012627;28;20606;-76
2021/06/12 03:37:53;;;;;;;5.77;3.57;;;17.70;99.90;;;;;;5014133;28;20228;-76
2021/06/12 03:40:22;;;;;;;5.80;4.10;;;17.60;99.90;;;;;;5012896;28;20204;-76
2021/06/12 03:42:49;;;;;;;5.23;3.50;;;17.50;99.90;;;;;;5014965;28;20219;-76
2021/06/12 03:45:20;;;;;;;6.20;3.87;;;17.60;99.90;;;;;;5013814;28;20215;-76
2021/06/12 03:47:49;;;;;;;7.27;4.13;;;17.60;99.90;;;;;;5012884;28;20279;-76
2021/06/12 03:50:18;;;;;;;6.83;4.03;;;17.60;99.90;;;;;;5014220;28;20553;-76
2021/06/12 03:52:48;;;;;;;7.97;4.00;;;17.70;99.90;;;;;;5013445;28;20237;-78
2021/06/12 03:55:17;;;;;;;9.00;4.67;;;17.50;99.90;;;;;;5013967;28;20216;-77
2021/06/12 03:57:44;;;;;;;8.10;4.23;;;17.50;99.90;;;;;;5009413;28;20261;-76
2021/06/12 04:00:12;;;;;;;8.33;4.47;;;17.60;99.90;;;;;;5025795;28;20581;-76
2021/06/12 04:02:47;;;;;;;6.60;4.03;;;17.70;99.90;;;;;;4999679;28;20298;-75
2021/06/12 04:05:14;;;;;;;6.40;3.87;;;17.60;99.90;;;;;;5028488;28;20624;-76
2021/06/12 04:07:41;;;;;;;6.10;4.70;;;17.60;99.90;;;;;;4999996;28;20212;-76
2021/06/12 04:10:10;;;;;;;5.83;4.00;;;17.60;99.90;;;;;;5007587;28;20259;-76
2021/06/12 04:12:37;;;;;;;5.50;4.20;;;17.60;99.90;;;;;;5039485;28;20212;-76
2021/06/12 04:15:05;;;;;;;7.07;4.50;;;17.50;99.90;;;;;;5014301;28;20219;-76
2021/06/12 04:17:33;;;;;;;8.00;5.03;;;17.50;99.90;;;;;;5029309;28;20196;-76
2021/06/12 04:20:00;;;;;;;9.90;5.40;;;17.50;99.90;;;;;;5011851;28;20465;-76
2021/06/12 04:22:27;;;;;;;8.10;5.37;;;17.40;99.90;;;;;;5014300;28;20577;-75
2021/06/12 04:24:54;;;;;;;8.97;6.00;;;17.60;99.90;;;;;;4998119;28;20658;-75
2021/06/12 04:27:21;;;;;;;9.37;6.83;;;17.60;99.90;;;;;;5010773;28;20252;-75
2021/06/12 04:29:48;;;;;;;9.00;6.47;;;17.50;99.90;;;;;;5014160;28;20287;-75
2021/06/12 04:32:15;;;;;;;10.17;6.77;;;17.60;99.90;;;;;;5000605;28;20271;-76
2021/06/12 04:34:42;;;;;;;10.77;8.17;;;17.60;99.90;;;;;;5016075;28;20321;-76
2021/06/12 04:37:09;;;;;;;12.47;6.70;;;17.60;99.90;;;;;;4995008;28;20216;-76
2021/06/12 04:39:36;;;;;;;10.33;7.17;;;17.80;99.90;;;;;;5014543;28;20195;-76
2021/06/12 04:42:04;;;;;;;10.70;6.30;;;17.90;99.90;;;;;;4999304;28;20229;-75
2021/06/12 04:44:31;;;;;;;10.77;7.70;;;17.90;99.90;;;;;;5019402;28;20220;-76
2021/06/12 04:46:57;;;;;;;12.50;7.63;;;17.80;99.90;;;;;;4999989;28;20766;-76
2021/06/12 04:49:24;;;;;;;15.03;8.43;;;18.00;99.90;;;;;;5001883;28;20204;-76
2021/06/12 04:51:51;;;;;;;10.03;7.30;;;17.90;99.90;;;;;;5017316;28;20216;-76
2021/06/12 04:54:19;;;;;;;10.70;7.80;;;17.90;99.90;;;;;;5018725;28;20366;-76
2021/06/12 04:56:45;;;;;;;14.77;8.37;;;18.10;99.90;;;;;;4999102;28;20203;-75
2021/06/12 04:59:12;;;;;;;12.67;8.33;;;17.90;99.90;;;;;;4993570;28;20238;-77
2021/06/12 05:01:39;;;;;;;12.13;8.20;;;17.90;99.90;;;;;;5013076;28;20224;-77
2021/06/12 05:04:06;;;;;;;12.93;8.60;;;17.90;99.90;;;;;;5014097;28;20196;-75
2021/06/12 05:06:33;;;;;;;18.27;9.80;;;17.90;99.90;;;;;;5012240;28;20602;-76
2021/06/12 05:09:00;;;;;;;14.73;9.23;;;17.90;99.90;;;;;;4995578;28;20211;-76
2021/06/12 05:11:27;;;;;;;15.13;9.37;;;17.90;99.90;;;;;;4994532;28;20302;-76
2021/06/12 05:13:54;;;;;;;12.67;8.53;;;18.00;99.90;;;;;;5012540;28;20640;-76
2021/06/12 05:16:22;;;;;;;12.07;9.10;;;17.90;99.90;;;;;;5030675;28;20312;-76
2021/06/12 05:18:49;;;;;;;13.07;9.07;;;17.80;99.90;;;;;;4993947;28;20300;-76
2021/06/12 05:21:17;;;;;;;14.30;8.80;;;17.90;99.90;;;;;;4996168;28;20206;-75
2021/06/12 05:23:44;;;;;;;13.30;9.17;;;17.90;99.90;;;;;;5010886;28;20278;-75
2021/06/12 05:26:14;;;;;;;16.63;9.20;;;18.00;99.90;;;;;;5009319;28;20227;-75
2021/06/12 05:28:41;;;;;;;12.70;9.53;;;18.00;99.90;;;;;;4998182;28;20367;-75
2021/06/12 05:31:08;;;;;;;14.20;9.90;;;18.10;99.90;;;;;;5013524;28;20243;-75
2021/06/12 05:33:35;;;;;;;12.97;9.37;;;18.10;99.90;;;;;;5012652;28;20230;-75
2021/06/12 05:36:03;;;;;;;13.63;9.53;;;18.10;99.90;;;;;;5018762;28;20238;-76
2021/06/12 05:38:32;;;;;;;14.37;9.70;;;18.00;99.90;;;;;;4997517;28;20266;-76
2021/06/12 05:40:59;;;;;;;13.40;9.33;;;18.10;99.90;;;;;;5012096;28;20695;-76
2021/06/12 05:43:26;;;;;;;14.87;9.33;;;17.90;99.90;;;;;;5013175;28;20595;-75
2021/06/12 05:45:53;;;;;;;16.97;9.77;;;18.00;99.90;;;;;;4993661;28;20209;-75
2021/06/12 05:48:20;;;;;;;19.00;10.13;;;18.00;99.90;;;;;;5012353;28;20259;-75
2021/06/12 05:50:48;;;;;;;16.27;9.20;;;18.00;99.90;;;;;;5011079;28;20209;-75
2021/06/12 05:53:14;;;;;;;16.10;10.70;;;18.10;99.90;;;;;;5028019;28;20201;-76
2021/06/12 05:55:41;;;;;;;15.77;10.27;;;18.00;99.90;;;;;;5008545;28;20359;-76
2021/06/12 05:58:08;;;;;;;14.63;9.83;;;18.00;99.90;;;;;;4998460;28;20698;-75
2021/06/12 06:00:36;;;;;;;14.63;10.00;;;18.10;99.90;;;;;;5011022;28;20596;-75
2021/06/12 06:03:03;;;;;;;18.13;10.00;;;18.20;99.90;;;;;;5010992;28;20584;-75
2021/06/12 06:05:30;;;;;;;16.03;9.80;;;18.30;99.90;;;;;;5032297;28;20208;-75
2021/06/12 06:07:57;;;;;;;15.50;9.73;;;18.30;99.90;;;;;;5032821;28;20207;-76
2021/06/12 06:10:24;;;;;;;15.93;9.83;;;18.10;99.90;;;;;;4993394;28;20547;-76
2021/06/12 06:12:51;;;;;;;14.33;9.90;;;18.00;99.90;;;;;;4995332;28;20231;-76
2021/06/12 06:15:19;;;;;;;15.77;10.20;;;18.10;99.90;;;;;;4999871;28;20225;-76
2021/06/12 06:17:45;;;;;;;13.30;9.07;;;18.30;99.90;;;;;;4996485;28;20219;-76
2021/06/12 06:20:14;;;;;;;18.83;9.67;;;18.30;99.90;;;;;;4999869;28;20231;-76
2021/06/12 06:22:41;;;;;;;15.57;10.07;;;18.40;99.90;;;;;;5011779;28;20203;-77
2021/06/12 06:25:09;;;;;;;13.97;9.60;;;18.40;99.90;;;;;;5031575;28;20207;-76
2021/06/12 06:27:36;;;;;;;16.20;9.63;;;18.30;99.90;;;;;;4980520;28;20212;-76
2021/06/12 06:30:04;;;;;;;16.43;9.43;;;18.40;99.90;;;;;;5025039;28;20334;-76
2021/06/12 06:32:31;;;;;;;14.80;10.13;;;18.50;99.90;;;;;;4991738;28;20267;-76
2021/06/12 06:34:59;;;;;;;17.67;9.97;;;18.70;99.90;;;;;;5009048;28;20221;-76
2021/06/12 06:37:26;;;;;;;15.97;9.47;;;18.80;99.90;;;;;;4994720;28;20251;-76
2021/06/12 06:39:53;;;;;;;16.40;9.10;;;18.70;99.90;;;;;;5029250;28;20212;-78
2021/06/12 06:42:20;;;;;;;13.67;9.37;;;18.70;99.90;;;;;;4992951;28;20198;-78
2021/06/12 06:44:47;;;;;;;14.13;8.67;;;18.80;99.90;;;;;;4996910;28;20311;-78
2021/06/12 06:47:14;;;;;;;15.20;9.90;;;18.80;99.90;;;;;;5001677;28;20236;-78
2021/06/12 06:49:42;;;;;;;11.47;9.00;;;18.80;99.90;;;;;;5022379;28;20213;-78
2021/06/12 06:52:08;;;;;;;10.80;8.00;;;18.90;99.90;;;;;;5009436;28;20312;-78
2021/06/12 06:54:35;;;;;;;9.97;7.93;;;18.90;99.90;;;;;;5011758;28;20214;-78
2021/06/12 06:57:03;;;;;;;11.03;6.73;;;19.10;99.90;;;;;;5015976;28;20204;-79
2021/06/12 06:59:30;;;;;;;12.63;7.97;;;19.20;99.90;;;;;;5009409;28;20202;-78
2021/06/12 07:01:57;;;;;;;7.60;6.60;;;19.40;99.90;;;;;;5009750;28;20250;-78
2021/06/12 07:04:24;;;;;;;10.20;6.67;;;19.60;99.90;;;;;;5012952;28;20209;-78
2021/06/12 07:06:51;;;;;;;8.37;6.73;;;19.70;99.90;;;;;;4995217;28;20212;-78
2021/06/12 07:09:18;;;;;;;7.57;5.57;;;19.90;99.90;;;;;;5018163;28;20967;-79
2021/06/12 07:11:45;;;;;;;7.03;5.10;;;19.80;99.90;;;;;;5015557;28;20204;-79
2021/06/12 07:14:12;;;;;;;6.83;4.37;;;19.80;99.90;;;;;;5029886;28;20287;-79
2021/06/12 07:16:40;;;;;;;7.43;4.53;;;20.00;95.90;;;;;;5033057;28;20236;-79
2021/06/12 07:19:07;;;;;;;10.90;4.60;;;20.10;80.90;;;;;;5014273;28;20623;-79
2021/06/12 07:21:34;;;;;;;7.83;4.50;;;20.30;59.60;;;;;;5003788;28;20317;-79
2021/06/12 07:24:01;;;;;;;4.83;3.63;;;20.30;1.00;;;;;;5014149;28;20221;-78
2021/06/12 07:26:28;;;;;;;6.93;4.30;;;20.40;1.00;;;;;;5032497;28;20199;-78
2021/06/12 07:28:55;;;;;;;5.53;4.07;;;20.90;1.00;;;;;;5003866;28;20646;-78
2021/06/12 07:31:39;;;;;;;6.05;4.05;;;20.40;1.00;;;;;;4995550;28;20462;-78
2021/06/12 07:34:07;;;;;;;5.57;3.60;;;20.60;1.00;;;;;;5028476;28;20208;-78
2021/06/12 07:36:35;;;;;;;4.90;3.10;;;21.00;1.00;;;;;;5006457;28;20343;-78
2021/06/12 07:39:03;;;;;;;6.83;3.57;;;20.90;1.00;;;;;;5008012;28;20229;-78
2021/06/12 07:41:31;;;;;;;5.20;3.60;;;20.70;1.00;;;;;;5020948;28;20295;-79
2021/06/12 07:43:58;;;;;;;5.40;3.10;;;21.00;1.00;;;;;;5012602;28;20209;-78
2021/06/12 07:46:25;;;;;;;6.57;2.93;;;21.10;1.00;;;;;;4994113;28;20571;-79
2021/06/12 07:48:52;;;;;;;5.43;3.20;;;20.90;1.00;;;;;;4995968;28;20209;-79
2021/06/12 07:51:20;;;;;;;5.47;3.23;;;20.80;1.00;;;;;;4996097;28;20201;-78
2021/06/12 07:53:47;;;;;;;4.90;2.83;;;21.10;1.00;;;;;;4990226;28;20256;-78
2021/06/12 07:56:13;;;;;;;4.57;3.03;;;21.60;1.00;;;;;;5007353;28;20221;-78
2021/06/12 07:58:41;;;;;;;5.40;3.47;;;21.40;1.00;;;;;;5013866;28;20597;-80
2021/06/12 08:01:07;;;;;;;6.83;3.40;;;21.10;1.00;;;;;;5007401;28;20684;-81
2021/06/12 08:03:35;;;;;;;4.47;2.40;;;21.00;1.00;;;;;;5011419;28;20220;-81
2021/06/12 08:06:02;;;;;;;5.20;3.10;;;20.90;1.00;;;;;;4997057;28;20255;-80
2021/06/12 08:08:29;;;;;;;3.73;2.90;;;20.70;1.00;;;;;;4990789;28;20205;-80
2021/06/12 08:10:56;;;;;;;8.90;3.10;;;20.60;1.00;;;;;;5000278;28;20269;-81
2021/06/12 08:13:23;;;;;;;6.97;3.17;;;20.60;1.00;;;;;;5008577;28;20209;-79
2021/06/12 08:15:49;;;;;;;5.60;2.77;;;20.80;1.00;;;;;;4994970;28;20214;-81
2021/06/12 08:18:16;;;;;;;3.73;2.87;;;21.10;1.00;;;;;;5011405;28;20194;-78
2021/06/12 08:20:43;;;;;;;6.87;2.77;;;20.90;1.00;;;;;;5007706;28;20246;-78
2021/06/12 08:23:10;;;;;;;6.53;2.97;;;20.80;1.00;;;;;;5010933;28;20261;-77
2021/06/12 08:25:37;;;;;;;5.40;3.00;;;20.70;1.00;;;;;;5007165;28;20665;-77
2021/06/12 08:28:05;;;;;;;3.87;3.10;;;20.70;1.00;;;;;;5008323;28;20247;-77
2021/06/12 08:30:36;;;;;;;6.10;2.80;;;20.80;1.00;;;;;;4997569;28;20327;-77
2021/06/12 08:33:04;;;;;;;3.67;2.77;;;21.10;1.00;;;;;;5003832;28;20229;-78
2021/06/12 08:35:31;;;;;;;4.63;2.90;;;21.20;1.00;;;;;;5006958;28;20991;-78
2021/06/12 08:37:58;;;;;;;4.03;2.93;;;20.90;99.90;;;;;;5002481;28;20288;-77
2021/06/12 08:40:27;;;;;;;5.40;2.70;;;20.80;99.90;;;;;;5007603;28;20227;-77
2021/06/12 08:42:54;;;;;;;4.77;3.23;;;20.80;1.00;;;;;;5010909;28;20239;-76
2021/06/12 08:45:25;;;;;;;7.27;2.93;;;20.60;1.00;;;;;;5012460;28;20234;-79
2021/06/12 08:47:53;;;;;;;6.47;2.90;;;20.70;99.90;;;;;;5004338;28;20258;-78
2021/06/12 08:50:25;;;;;;;6.10;3.03;;;20.60;1.00;;;;;;5004329;28;20205;-78
2021/06/12 08:52:54;;;;;;;4.67;2.30;;;20.60;1.00;;;;;;4991240;28;20249;-78
2021/06/12 08:55:21;;;;;;;5.60;2.67;;;20.50;99.90;;;;;;5005331;28;20339;-79
2021/06/12 08:57:48;;;;;;;3.43;2.13;;;20.70;1.00;;;;;;5010326;28;20222;-78
2021/06/12 09:00:16;;;;;;;4.60;2.20;;;21.00;1.00;;;;;;4996804;28;20549;-78
2021/06/12 09:03:14;;;;;;;5.33;2.17;;;21.50;1.00;;;;;;5004508;28;20209;-78
2021/06/12 09:05:51;;;;;;;5.83;2.30;;;21.40;1.00;;;;;;5001511;28;20761;-76
2021/06/12 09:08:20;;;;;;;5.03;2.27;;;21.50;1.00;;;;;;5013017;28;20316;-77
2021/06/12 09:11:03;;;;;;;4.53;2.43;;;21.30;99.90;;;;;;5023463;28;20201;-78
2021/06/12 09:13:54;;;;;;;3.53;1.80;;;21.10;1.00;;;;;;5012020;28;20197;-78
2021/06/12 09:16:22;;;;;;;5.57;2.07;;;21.10;99.90;;;;;;5007807;28;20737;-77
2021/06/12 09:19:11;;;;;;;4.60;1.93;;;21.20;1.00;;;;;;5002990;28;20212;-78
2021/06/12 09:21:42;;;;;;;3.13;1.83;;;21.00;99.90;;;;;;5004975;28;20209;-78
2021/06/12 09:24:24;;;;;;;4.60;1.90;;;21.70;21.40;;;;;;5006506;28;20201;-78
2021/06/12 09:26:58;;;;;;;4.97;1.90;;;22.20;1.00;;;;;;5002120;28;20826;-77
2021/06/12 09:29:40;;;;;;;3.07;1.47;;;22.10;1.00;;;;;;5004744;28;20604;-78
2021/06/12 09:32:16;;;;;;;4.40;1.80;;;22.70;1.00;;;;;;5002040;28;20719;-79
2021/06/12 09:34:45;;;;;;;4.53;1.73;;;23.50;1.00;;;;;;5012182;28;20236;-77
2021/06/12 09:37:21;;;;;;;4.73;1.90;;;23.70;65.60;;;;;;5032415;28;20244;-77
2021/06/12 09:40:07;;;;;;;5.87;2.47;;;23.50;1.00;;;;;;5008626;28;20231;-78
2021/06/12 09:42:40;;;;;;;4.80;2.07;;;23.30;1.00;;;;;;5029803;28;20640;-78
2021/06/12 09:45:10;;;;;;;3.67;2.00;;;22.90;1.00;;;;;;5016804;28;20252;-77
2021/06/12 09:47:37;;;;;;;3.43;2.13;;;23.20;1.00;;;;;;5016678;28;20200;-77
2021/06/12 09:50:06;;;;;;;4.53;2.23;;;23.40;1.00;;;;;;5010113;28;20200;-77
2021/06/12 09:53:08;;;;;;;4.93;1.77;;;23.20;1.00;;;;;;5007987;28;20236;-77
2021/06/12 09:55:36;;;;;;;3.93;2.00;;;22.60;1.00;;;;;;5022955;28;20992;-77
2021/06/12 09:58:04;;;;;;;7.97;1.93;;;22.50;97.20;;;;;;4997650;28;20847;-79
2021/06/12 10:00:46;;;;;;;5.20;1.90;;;22.30;99.90;;;;;;5030974;28;20262;-79
2021/06/12 10:03:27;;;;;;;3.90;1.80;;;22.20;99.90;;;;;;5015804;28;20200;-80
2021/06/12 10:06:14;;;;;;;4.50;1.87;;;22.30;99.90;;;;;;5003840;28;20995;-81
2021/06/12 10:08:45;;;;;;;2.00;1.70;;;22.60;1.00;;;;;;5014295;28;20257;-78
2021/06/12 10:11:13;;;;;;;4.63;2.17;;;22.40;99.10;;;;;;5010736;28;20220;-78
2021/06/12 10:13:45;;;;;;;4.70;1.80;;;22.80;1.00;;;;;;5009304;28;20211;-80
2021/06/12 10:16:13;;;;;;;2.77;2.10;;;22.70;1.00;;;;;;5012614;28;20571;-80
2021/06/12 10:18:41;;;;;;;4.30;2.13;;;22.60;1.00;;;;;;5016157;28;20209;-78
2021/06/12 10:21:12;;;;;;;4.53;1.70;;;23.20;1.00;;;;;;5004089;28;20205;-80
2021/06/12 10:23:40;;;;;;;9.87;2.00;;;23.30;1.00;;;;;;4994020;28;20235;-79
2021/06/12 10:26:11;;;;;;;6.37;2.30;;;23.00;1.00;;;;;;5025099;28;20649;-78
2021/06/12 10:28:38;;;;;;;4.40;1.77;;;22.90;1.00;;;;;;4995944;28;20295;-78
2021/06/12 10:31:11;;;;;;;6.20;3.00;;;23.00;1.00;;;;;;5010568;28;20317;-78
2021/06/12 10:33:43;;;;;;;5.87;2.40;;;22.60;1.00;;;;;;5019541;28;20239;-78
2021/06/12 10:36:17;;;;;;;2.00;1.40;;;23.10;77.50;;;;;;5012609;28;20261;-78
2021/06/12 10:38:45;;;;;;;8.63;2.53;;;23.50;1.00;;;;;;5015172;28;20204;-78
2021/06/12 10:41:21;;;;;;;4.07;1.90;;;23.40;1.00;;;;;;5009285;28;20201;-79
2021/06/12 10:43:50;;;;;;;6.77;2.13;;;23.50;1.00;;;;;;5032019;28;20266;-78
2021/06/12 10:46:23;;;;;;;3.67;2.07;;;23.60;1.00;;;;;;5012197;28;20247;-78
2021/06/12 10:49:04;;;;;;;3.83;2.00;;;23.80;1.00;;;;;;5011325;28;20629;-79
2021/06/12 10:51:31;;;;;;;5.40;2.03;;;23.10;1.00;;;;;;5010712;28;20206;-78
2021/06/12 10:54:07;;;;;;;2.90;1.70;;;23.20;1.00;;;;;;5016323;28;20206;-79
2021/06/12 10:56:42;;;;;;;5.33;1.93;;;23.30;1.00;;;;;;5002477;28;20252;-79
2021/06/12 10:59:10;;;;;;;4.50;2.07;;;23.80;1.00;;;;;;5011345;28;20227;-79
2021/06/12 11:01:37;;;;;;;6.50;1.83;;;23.80;1.00;;;;;;4997122;28;20262;-78
2021/06/12 11:04:12;;;;;;;3.30;2.00;;;23.40;1.00;;;;;;5011947;28;20642;-79
2021/06/12 11:09:18;;;;;;;3.50;2.00;;;22.70;1.00;;;;;;5028075;28;20212;-78
2021/06/12 11:11:56;;;;;;;5.20;1.70;;;23.20;1.00;;;;;;5010744;28;20227;-79
2021/06/12 11:14:24;;;;;;;4.33;1.50;;;23.40;1.00;;;;;;5010068;28;20296;-78
2021/06/12 11:20:11;;;;;;;6.00;1.93;;;24.90;99.90;;;;;;5024983;28;20219;-79
2021/06/12 11:22:54;;;;;;;5.60;1.63;;;25.00;99.90;;;;;;5012278;28;20691;-79
2021/06/12 11:25:23;;;;;;;4.33;2.23;;;24.80;99.90;;;;;;5011904;28;20201;-79
2021/06/12 11:28:23;;;;;;;3.43;2.03;;;25.20;99.90;;;;;;5012980;28;20201;-79
2021/06/12 11:30:53;;;;;;;2.37;1.33;;;25.50;99.90;;;;;;5012076;28;20244;-79
2021/06/12 11:33:21;;;;;;;4.37;1.60;;;25.00;99.90;;;;;;5011691;28;20227;-77
2021/06/12 11:35:52;;;;;;;6.57;2.03;;;25.00;99.90;;;;;;5014900;28;20305;-78
2021/06/12 11:38:28;;;;;;;4.03;1.53;;;25.20;99.90;;;;;;5012219;28;20261;-78
2021/06/12 11:41:04;;;;;;;2.67;1.50;;;26.20;99.90;;;;;;5005560;28;20269;-79
2021/06/12 11:43:31;;;;;;;4.63;1.60;;;25.70;99.90;;;;;;5018684;28;20266;-81
2021/06/12 11:45:59;;;;;;;2.90;1.30;;;26.10;99.90;;;;;;5010754;28;20337;-81
2021/06/12 11:48:27;;;;;;;3.53;1.80;;;26.20;99.90;;;;;;5002461;28;20237;-82
2021/06/12 11:50:56;;;;;;;3.43;1.47;;;26.10;99.90;;;;;;5005730;28;20232;-82
2021/06/12 11:53:33;;;;;;;4.37;1.97;;;25.70;99.90;;;;;;5020258;28;20542;-82
2021/06/12 11:56:02;;;;;;;3.33;1.37;;;25.50;99.90;;;;;;5007715;28;20646;-81
2021/06/12 11:58:29;;;;;;;3.73;1.63;;;25.30;99.90;;;;;;5045976;28;20349;-81
2021/06/12 12:00:56;;;;;;;1.13;1.03;;;25.60;99.90;;;;;;5013035;28;20278;-80
2021/06/12 12:03:23;;;;;;;4.07;1.43;;;25.90;99.90;;;;;;5007432;28;20210;-80
2021/06/12 12:05:57;;;;;;;3.03;1.50;;;25.90;99.90;;;;;;5018408;28;20226;-80
2021/06/12 12:08:25;;;;;;;3.57;1.70;;;25.60;99.90;;;;;;5012247;28;20224;-81
2021/06/12 12:10:54;;;;;;;3.70;1.63;;;24.90;99.90;;;;;;5013077;28;20539;-80
2021/06/12 12:13:36;;;;;;;2.87;1.43;;;24.80;99.90;;;;;;5012985;28;20207;-80
2021/06/12 12:16:17;;;;;;;3.77;2.00;;;25.50;99.90;;;;;;5035513;28;20246;-81
2021/06/12 12:18:48;;;;;;;3.63;1.40;;;25.80;99.90;;;;;;5022032;28;20224;-81
2021/06/12 12:21:27;;;;;;;3.43;2.03;;;24.30;99.90;;;;;;5000421;28;20216;-81
2021/06/12 12:23:57;;;;;;;2.57;1.50;;;23.80;99.90;;;;;;5008485;28;20193;-80
2021/06/12 12:26:25;;;;;;;2.37;1.20;;;24.20;99.90;;;;;;4990602;28;20211;-82
2021/06/12 12:28:58;;;;;;;4.57;1.70;;;24.50;99.90;;;;;;5014588;28;20196;-81
2021/06/12 12:31:29;;;;;;;4.43;1.53;;;24.70;99.90;;;;;;5029108;28;20329;-81
2021/06/12 12:33:58;;;;;;;5.23;1.43;;;25.10;99.90;;;;;;4991117;28;20363;-81
2021/06/12 12:36:27;;;;;;;1.73;1.30;;;25.90;99.90;;;;;;5015155;28;20211;-81
2021/06/12 12:39:00;;;;;;;3.27;1.60;;;26.90;99.90;;;;;;5019883;28;20219;-81
2021/06/12 12:41:30;;;;;;;2.97;1.47;;;26.70;99.90;;;;;;5033499;28;20196;-81
2021/06/12 12:44:16;;;;;;;2.13;1.53;;;26.40;99.90;;;;;;5014139;28;20258;-80
2021/06/12 12:46:45;;;;;;;5.67;1.70;;;25.90;99.90;;;;;;5005835;28;20299;-78
2021/06/12 12:49:32;;;;;;;2.43;1.70;;;25.70;99.90;;;;;;5004662;28;20214;-78
2021/06/12 12:52:01;;;;;;;4.67;1.90;;;25.90;99.90;;;;;;4995790;28;20289;-78
2021/06/12 12:54:33;;;;;;;6.27;1.70;;;25.80;99.90;;;;;;5013058;28;20229;-78
2021/06/12 12:57:07;;;;;;;3.57;1.60;;;26.50;99.90;;;;;;5014826;28;20315;-78
2021/06/12 12:59:42;;;;;;;5.37;1.43;;;25.90;99.90;;;;;;5026186;28;20206;-78
2021/06/12 13:02:10;;;;;;;5.00;1.60;;;25.50;99.90;;;;;;5024774;28;21017;-78
2021/06/12 13:04:45;;;;;;;4.03;1.90;;;24.80;99.90;;;;;;4997839;28;20200;-78
2021/06/12 13:07:18;;;;;;;2.93;1.70;;;24.20;99.90;;;;;;5021617;28;20213;-78